sensor_id;sensor_type;location;lat;lon;timestamp;temperature;humidity
4052;DHT22;2040;50.924;11.604;2023-03-23T00:01:12;12.40;99.90
4052;DHT22;2040;50.924;11.604;2023-03-23T00:03:39;12.50;99.90
4052;DHT22;2040;50.924;11.604;2023-03-23T00:06:06;12.50;99.90
4052;DHT22;2040;50.924;11.604;2023-03-23T00:08:33;12.50;99.90
4052;DHT22;2040;50.924;11.604;2023-03-23T00:11:02;12.50;99.90
4052;DHT22;2040;50.924;11.604;2023-03-23T00:13:28;12.70;99.90
4052;DHT22;2040;50.924;11.604;2023-03-23T00:15:54;12.60;99.90
4052;DHT22;2040;50.924;11.604;2023-03-23T00:18:23;12.60;99.90
4052;DHT22;2040;50.924;11.604;2023-03-23T00:20:50;12.60;99.90
4052;DHT22;2040;50.924;11.604;2023-03-23T00:23:17;12.70;99.90
4052;DHT22;2040;50.924;11.604;2023-03-23T00:25:50;12.60;99.90
4052;DHT22;2040;50.924;11.604;2023-03-23T00:28:16;12.60;99.90
4052;DHT22;2040;50.924;11.604;2023-03-23T00:30:42;12.90;99.90
4052;DHT22;2040;50.924;11.604;2023-03-23T00:33:10;12.90;99.90
4052;DHT22;2040;50.924;11.604;2023-03-23T00:35:38;12.90;99.90
4052;DHT22;2040;50.924;11.604;2023-03-23T00:38:04;12.80;99.90
4052;DHT22;2040;50.924;11.604;2023-03-23T00:40:30;12.80;99.90
4052;DHT22;2040;50.924;11.604;2023-03-23T00:42:56;12.70;99.90
4052;DHT22;2040;50.924;11.604;2023-03-23T00:45:21;12.80;99.90
4052;DHT22;2040;50.924;11.604;2023-03-23T00:47:49;12.80;99.90
4052;DHT22;2040;50.924;11.604;2023-03-23T00:50:16;12.80;99.90
4052;DHT22;2040;50.924;11.604;2023-03-23T00:52:43;12.70;99.90
4052;DHT22;2040;50.924;11.604;2023-03-23T00:55:09;12.80;99.90
4052;DHT22;2040;50.924;11.604;2023-03-23T00:57:34;12.70;99.90
4052;DHT22;2040;50.924;11.604;2023-03-23T01:00:00;12.80;99.90
4052;DHT22;2040;50.924;11.604;2023-03-23T01:02:26;12.80;99.90
4052;DHT22;2040;50.924;11.604;2023-03-23T01:04:51;12.80;99.90
4052;DHT22;2040;50.924;11.604;2023-03-23T01:07:20;12.90;99.90
4052;DHT22;2040;50.924;11.604;2023-03-23T01:09:47;12.80;99.90
4052;DHT22;2040;50.924;11.604;2023-03-23T01:12:13;12.90;99.90
4052;DHT22;2040;50.924;11.604;2023-03-23T01:14:40;12.80;99.90
4052;DHT22;2040;50.924;11.604;2023-03-23T01:17:07;12.90;99.90
4052;DHT22;2040;50.924;11.604;2023-03-23T01:19:32;12.70;99.90
4052;DHT22;2040;50.924;11.604;2023-03-23T01:21:58;12.70;99.90
4052;DHT22;2040;50.924;11.604;2023-03-23T01:24:24;12.60;99.90
4052;DHT22;2040;50.924;11.604;2023-03-23T01:26:49;12.60;99.90
4052;DHT22;2040;50.924;11.604;2023-03-23T01:29:15;12.50;99.90
4052;DHT22;2040;50.924;11.604;2023-03-23T01:31:41;12.70;99.90
4052;DHT22;2040;50.924;11.604;2023-03-23T01:34:08;12.70;99.90
4052;DHT22;2040;50.924;11.604;2023-03-23T01:36:34;12.60;99.90
4052;DHT22;2040;50.924;11.604;2023-03-23T01:39:02;12.50;99.90
4052;DHT22;2040;50.924;11.604;2023-03-23T01:41:29;12.60;99.90
4052;DHT22;2040;50.924;11.604;2023-03-23T01:46:56;12.50;99.90
4052;DHT22;2040;50.924;11.604;2023-03-23T01:49:27;12.60;99.90
4052;DHT22;2040;50.924;11.604;2023-03-23T01:51:56;12.50;99.90
4052;DHT22;2040;50.924;11.604;2023-03-23T01:54:24;12.40;99.90
4052;DHT22;2040;50.924;11.604;2023-03-23T01:56:55;12.40;99.90
4052;DHT22;2040;50.924;11.604;2023-03-23T01:59:22;12.70;99.90
4052;DHT22;2040;50.924;11.604;2023-03-23T02:01:48;12.70;99.90
4052;DHT22;2040;50.924;11.604;2023-03-23T02:04:18;12.60;99.90
4052;DHT22;2040;50.924;11.604;2023-03-23T02:06:44;12.60;99.90
4052;DHT22;2040;50.924;11.604;2023-03-23T02:09:12;12.60;99.90
4052;DHT22;2040;50.924;11.604;2023-03-23T02:11:45;12.70;99.90
4052;DHT22;2040;50.924;11.604;2023-03-23T02:14:11;12.60;99.90
4052;DHT22;2040;50.924;11.604;2023-03-23T02:16:56;12.60;99.90
4052;DHT22;2040;50.924;11.604;2023-03-23T02:19:39;12.60;99.90
4052;DHT22;2040;50.924;11.604;2023-03-23T02:34:28;12.60;99.90
4052;DHT22;2040;50.924;11.604;2023-03-23T02:37:14;12.70;99.90
4052;DHT22;2040;50.924;11.604;2023-03-23T02:39:49;12.80;99.90
4052;DHT22;2040;50.924;11.604;2023-03-23T02:42:20;12.70;99.90
4052;DHT22;2040;50.924;11.604;2023-03-23T02:44:48;12.70;99.90
4052;DHT22;2040;50.924;11.604;2023-03-23T02:47:18;12.70;99.90
4052;DHT22;2040;50.924;11.604;2023-03-23T02:49:48;12.70;99.90
4052;DHT22;2040;50.924;11.604;2023-03-23T02:52:19;12.70;99.90
4052;DHT22;2040;50.924;11.604;2023-03-23T02:54:48;12.60;99.90
4052;DHT22;2040;50.924;11.604;2023-03-23T02:57:14;12.60;99.90
4052;DHT22;2040;50.924;11.604;2023-03-23T02:59:40;12.60;99.90
4052;DHT22;2040;50.924;11.604;2023-03-23T03:02:11;12.60;99.90
4052;DHT22;2040;50.924;11.604;2023-03-23T03:04:39;12.60;99.90
4052;DHT22;2040;50.924;11.604;2023-03-23T03:09:57;12.60;99.90
4052;DHT22;2040;50.924;11.604;2023-03-23T03:12:57;12.60;99.90
4052;DHT22;2040;50.924;11.604;2023-03-23T03:15:36;12.60;99.90
4052;DHT22;2040;50.924;11.604;2023-03-23T03:18:31;12.70;99.90
4052;DHT22;2040;50.924;11.604;2023-03-23T03:21:09;12.60;99.90
4052;DHT22;2040;50.924;11.604;2023-03-23T03:23:39;12.60;99.90
4052;DHT22;2040;50.924;11.604;2023-03-23T03:26:07;12.80;99.90
4052;DHT22;2040;50.924;11.604;2023-03-23T03:28:36;12.70;99.90
4052;DHT22;2040;50.924;11.604;2023-03-23T03:31:03;12.70;99.90
4052;DHT22;2040;50.924;11.604;2023-03-23T03:33:30;12.60;99.90
4052;DHT22;2040;50.924;11.604;2023-03-23T03:35:59;12.60;99.90
4052;DHT22;2040;50.924;11.604;2023-03-23T03:38:25;12.50;99.90
4052;DHT22;2040;50.924;11.604;2023-03-23T03:40:51;12.50;99.90
4052;DHT22;2040;50.924;11.604;2023-03-23T03:43:17;12.50;99.90
4052;DHT22;2040;50.924;11.604;2023-03-23T03:45:43;12.50;99.90
4052;DHT22;2040;50.924;11.604;2023-03-23T03:48:10;12.50;99.90
4052;DHT22;2040;50.924;11.604;2023-03-23T03:50:35;12.50;99.90
4052;DHT22;2040;50.924;11.604;2023-03-23T03:53:01;12.50;99.90
4052;DHT22;2040;50.924;11.604;2023-03-23T03:55:27;12.60;99.90
4052;DHT22;2040;50.924;11.604;2023-03-23T03:57:54;12.60;99.90
4052;DHT22;2040;50.924;11.604;2023-03-23T04:00:20;12.60;99.90
4052;DHT22;2040;50.924;11.604;2023-03-23T04:02:48;12.50;99.90
4052;DHT22;2040;50.924;11.604;2023-03-23T04:05:23;12.40;99.90
4052;DHT22;2040;50.924;11.604;2023-03-23T04:07:50;12.40;99.90
4052;DHT22;2040;50.924;11.604;2023-03-23T04:10:18;12.40;99.90
4052;DHT22;2040;50.924;11.604;2023-03-23T04:12:50;12.50;99.90
4052;DHT22;2040;50.924;11.604;2023-03-23T04:15:15;12.50;99.90
4052;DHT22;2040;50.924;11.604;2023-03-23T04:17:41;12.50;99.90
4052;DHT22;2040;50.924;11.604;2023-03-23T04:20:08;12.50;99.90
4052;DHT22;2040;50.924;11.604;2023-03-23T04:22:40;12.60;99.90
4052;DHT22;2040;50.924;11.604;2023-03-23T04:25:10;12.60;99.90
4052;DHT22;2040;50.924;11.604;2023-03-23T04:27:38;12.60;99.90
4052;DHT22;2040;50.924;11.604;2023-03-23T04:30:04;12.60;99.90
4052;DHT22;2040;50.924;11.604;2023-03-23T04:32:31;12.60;99.90
4052;DHT22;2040;50.924;11.604;2023-03-23T04:35:00;12.70;99.90
4052;DHT22;2040;50.924;11.604;2023-03-23T04:37:27;12.60;99.90
4052;DHT22;2040;50.924;11.604;2023-03-23T04:39:57;12.60;99.90
4052;DHT22;2040;50.924;11.604;2023-03-23T04:42:28;12.60;99.90
4052;DHT22;2040;50.924;11.604;2023-03-23T04:44:54;12.60;99.90
4052;DHT22;2040;50.924;11.604;2023-03-23T04:47:20;12.60;99.90
4052;DHT22;2040;50.924;11.604;2023-03-23T04:49:46;12.50;99.90
4052;DHT22;2040;50.924;11.604;2023-03-23T04:52:11;12.50;99.90
4052;DHT22;2040;50.924;11.604;2023-03-23T04:54:37;12.60;99.90
4052;DHT22;2040;50.924;11.604;2023-03-23T04:57:03;12.50;99.90
4052;DHT22;2040;50.924;11.604;2023-03-23T04:59:28;12.60;99.90
4052;DHT22;2040;50.924;11.604;2023-03-23T05:01:56;12.50;99.90
4052;DHT22;2040;50.924;11.604;2023-03-23T05:04:22;12.40;99.90
4052;DHT22;2040;50.924;11.604;2023-03-23T05:06:48;12.40;99.90
4052;DHT22;2040;50.924;11.604;2023-03-23T05:09:13;12.40;99.90
4052;DHT22;2040;50.924;11.604;2023-03-23T05:11:39;12.40;99.90
4052;DHT22;2040;50.924;11.604;2023-03-23T05:14:05;12.40;99.90
4052;DHT22;2040;50.924;11.604;2023-03-23T05:16:30;12.40;99.90
4052;DHT22;2040;50.924;11.604;2023-03-23T05:18:56;12.40;99.90
4052;DHT22;2040;50.924;11.604;2023-03-23T05:21:24;12.40;99.90
4052;DHT22;2040;50.924;11.604;2023-03-23T05:23:51;12.30;99.90
4052;DHT22;2040;50.924;11.604;2023-03-23T05:26:20;12.40;99.90
4052;DHT22;2040;50.924;11.604;2023-03-23T05:28:46;12.30;99.90
4052;DHT22;2040;50.924;11.604;2023-03-23T05:31:13;12.30;99.90
4052;DHT22;2040;50.924;11.604;2023-03-23T05:33:39;12.30;99.90
4052;DHT22;2040;50.924;11.604;2023-03-23T05:36:05;12.30;99.90
4052;DHT22;2040;50.924;11.604;2023-03-23T05:38:32;12.30;99.90
4052;DHT22;2040;50.924;11.604;2023-03-23T05:40:58;12.30;99.90
4052;DHT22;2040;50.924;11.604;2023-03-23T05:43:26;12.30;99.90
4052;DHT22;2040;50.924;11.604;2023-03-23T05:45:52;12.30;99.90
4052;DHT22;2040;50.924;11.604;2023-03-23T05:48:17;12.20;99.90
4052;DHT22;2040;50.924;11.604;2023-03-23T05:50:43;12.20;99.90
4052;DHT22;2040;50.924;11.604;2023-03-23T05:53:09;12.10;99.90
4052;DHT22;2040;50.924;11.604;2023-03-23T05:55:35;12.10;99.90
4052;DHT22;2040;50.924;11.604;2023-03-23T05:58:01;12.10;99.90
4052;DHT22;2040;50.924;11.604;2023-03-23T06:00:27;12.10;99.90
4052;DHT22;2040;50.924;11.604;2023-03-23T06:02:56;12.20;99.90
4052;DHT22;2040;50.924;11.604;2023-03-23T06:05:22;12.20;99.90
4052;DHT22;2040;50.924;11.604;2023-03-23T06:07:49;12.20;99.90
4052;DHT22;2040;50.924;11.604;2023-03-23T06:10:14;12.20;99.90
4052;DHT22;2040;50.924;11.604;2023-03-23T06:12:40;12.10;99.90
4052;DHT22;2040;50.924;11.604;2023-03-23T06:15:07;12.20;99.90
4052;DHT22;2040;50.924;11.604;2023-03-23T06:17:34;12.20;99.90
4052;DHT22;2040;50.924;11.604;2023-03-23T06:20:03;12.10;99.90
4052;DHT22;2040;50.924;11.604;2023-03-23T06:22:30;12.10;99.90
4052;DHT22;2040;50.924;11.604;2023-03-23T06:24:55;12.10;99.90
4052;DHT22;2040;50.924;11.604;2023-03-23T06:27:23;12.20;99.90
4052;DHT22;2040;50.924;11.604;2023-03-23T06:29:49;12.10;99.90
4052;DHT22;2040;50.924;11.604;2023-03-23T06:32:14;12.20;99.90
4052;DHT22;2040;50.924;11.604;2023-03-23T06:34:40;12.20;99.90
4052;DHT22;2040;50.924;11.604;2023-03-23T06:37:09;12.20;99.90
4052;DHT22;2040;50.924;11.604;2023-03-23T06:39:34;12.20;99.90
4052;DHT22;2040;50.924;11.604;2023-03-23T06:42:01;12.10;99.90
4052;DHT22;2040;50.924;11.604;2023-03-23T06:44:26;12.10;99.90
4052;DHT22;2040;50.924;11.604;2023-03-23T06:46:52;11.90;99.90
4052;DHT22;2040;50.924;11.604;2023-03-23T06:49:18;11.80;99.90
4052;DHT22;2040;50.924;11.604;2023-03-23T06:51:43;11.60;99.90
4052;DHT22;2040;50.924;11.604;2023-03-23T06:54:09;11.60;99.90
4052;DHT22;2040;50.924;11.604;2023-03-23T06:56:35;11.60;99.90
4052;DHT22;2040;50.924;11.604;2023-03-23T06:59:01;11.40;99.90
4052;DHT22;2040;50.924;11.604;2023-03-23T07:01:26;11.40;99.90
4052;DHT22;2040;50.924;11.604;2023-03-23T07:03:54;11.40;99.90
4052;DHT22;2040;50.924;11.604;2023-03-23T07:06:21;11.40;99.90
4052;DHT22;2040;50.924;11.604;2023-03-23T07:08:47;11.40;99.90
4052;DHT22;2040;50.924;11.604;2023-03-23T07:11:12;11.40;99.90
4052;DHT22;2040;50.924;11.604;2023-03-23T07:13:38;11.40;99.90
4052;DHT22;2040;50.924;11.604;2023-03-23T07:16:07;11.40;99.90
4052;DHT22;2040;50.924;11.604;2023-03-23T07:18:33;11.50;99.90
4052;DHT22;2040;50.924;11.604;2023-03-23T07:20:59;11.60;99.90
4052;DHT22;2040;50.924;11.604;2023-03-23T07:23:25;11.60;99.90
4052;DHT22;2040;50.924;11.604;2023-03-23T07:25:51;11.60;99.90
4052;DHT22;2040;50.924;11.604;2023-03-23T07:28:17;11.60;99.90
4052;DHT22;2040;50.924;11.604;2023-03-23T07:30:44;11.60;99.90
4052;DHT22;2040;50.924;11.604;2023-03-23T07:33:10;11.60;99.90
4052;DHT22;2040;50.924;11.604;2023-03-23T07:35:36;11.60;99.90
4052;DHT22;2040;50.924;11.604;2023-03-23T07:38:03;11.60;99.90
4052;DHT22;2040;50.924;11.604;2023-03-23T07:40:30;11.60;99.90
4052;DHT22;2040;50.924;11.604;2023-03-23T07:42:59;11.70;99.90
4052;DHT22;2040;50.924;11.604;2023-03-23T07:45:26;11.70;99.90
4052;DHT22;2040;50.924;11.604;2023-03-23T07:47:52;11.70;99.90
4052;DHT22;2040;50.924;11.604;2023-03-23T07:50:18;11.70;99.90
4052;DHT22;2040;50.924;11.604;2023-03-23T07:52:47;11.80;99.90
4052;DHT22;2040;50.924;11.604;2023-03-23T07:55:13;11.80;99.90
4052;DHT22;2040;50.924;11.604;2023-03-23T07:57:43;11.90;99.90
4052;DHT22;2040;50.924;11.604;2023-03-23T08:00:10;11.90;99.90
4052;DHT22;2040;50.924;11.604;2023-03-23T08:02:37;12.00;99.90
4052;DHT22;2040;50.924;11.604;2023-03-23T08:05:04;12.00;99.90
4052;DHT22;2040;50.924;11.604;2023-03-23T08:07:30;12.00;99.90
4052;DHT22;2040;50.924;11.604;2023-03-23T08:09:55;12.10;99.90
4052;DHT22;2040;50.924;11.604;2023-03-23T08:12:21;12.20;99.90
4052;DHT22;2040;50.924;11.604;2023-03-23T08:14:46;12.20;99.90
4052;DHT22;2040;50.924;11.604;2023-03-23T08:17:13;12.20;99.90
4052;DHT22;2040;50.924;11.604;2023-03-23T08:19:40;12.20;99.90
4052;DHT22;2040;50.924;11.604;2023-03-23T08:22:05;12.20;99.90
4052;DHT22;2040;50.924;11.604;2023-03-23T08:24:32;12.30;99.90
4052;DHT22;2040;50.924;11.604;2023-03-23T08:27:00;12.40;99.90
4052;DHT22;2040;50.924;11.604;2023-03-23T08:29:26;12.60;99.90
4052;DHT22;2040;50.924;11.604;2023-03-23T08:31:52;12.70;99.90
4052;DHT22;2040;50.924;11.604;2023-03-23T08:34:17;12.80;99.90
4052;DHT22;2040;50.924;11.604;2023-03-23T08:36:43;12.90;99.90
4052;DHT22;2040;50.924;11.604;2023-03-23T08:39:12;12.90;99.90
4052;DHT22;2040;50.924;11.604;2023-03-23T08:41:40;12.90;99.90
4052;DHT22;2040;50.924;11.604;2023-03-23T08:44:05;12.90;99.90
4052;DHT22;2040;50.924;11.604;2023-03-23T08:46:33;12.90;99.90
4052;DHT22;2040;50.924;11.604;2023-03-23T08:48:59;13.00;99.90
4052;DHT22;2040;50.924;11.604;2023-03-23T08:51:24;13.10;99.90
4052;DHT22;2040;50.924;11.604;2023-03-23T08:53:50;13.30;99.90
4052;DHT22;2040;50.924;11.604;2023-03-23T08:56:16;13.60;99.90
4052;DHT22;2040;50.924;11.604;2023-03-23T08:58:42;13.70;99.90
4052;DHT22;2040;50.924;11.604;2023-03-23T09:01:08;13.70;99.90
4052;DHT22;2040;50.924;11.604;2023-03-23T09:03:35;13.80;99.90
4052;DHT22;2040;50.924;11.604;2023-03-23T09:06:02;13.80;99.90
4052;DHT22;2040;50.924;11.604;2023-03-23T09:08:28;13.80;99.90
4052;DHT22;2040;50.924;11.604;2023-03-23T09:11:09;13.70;99.90
4052;DHT22;2040;50.924;11.604;2023-03-23T09:13:36;13.70;99.90
4052;DHT22;2040;50.924;11.604;2023-03-23T09:16:02;13.80;99.90
4052;DHT22;2040;50.924;11.604;2023-03-23T09:18:28;13.90;99.90
4052;DHT22;2040;50.924;11.604;2023-03-23T09:20:54;14.00;99.90
4052;DHT22;2040;50.924;11.604;2023-03-23T09:23:20;14.00;99.90
4052;DHT22;2040;50.924;11.604;2023-03-23T09:25:46;14.10;99.90
4052;DHT22;2040;50.924;11.604;2023-03-23T09:28:12;14.30;99.90
4052;DHT22;2040;50.924;11.604;2023-03-23T09:30:38;14.40;99.90
4052;DHT22;2040;50.924;11.604;2023-03-23T09:33:07;14.40;99.90
4052;DHT22;2040;50.924;11.604;2023-03-23T09:35:34;14.40;99.90
4052;DHT22;2040;50.924;11.604;2023-03-23T09:38:01;14.40;99.90
4052;DHT22;2040;50.924;11.604;2023-03-23T09:40:54;14.50;99.90
4052;DHT22;2040;50.924;11.604;2023-03-23T09:43:35;14.40;99.90
4052;DHT22;2040;50.924;11.604;2023-03-23T09:46:35;14.30;99.90
4052;DHT22;2040;50.924;11.604;2023-03-23T09:49:18;14.30;99.90
4052;DHT22;2040;50.924;11.604;2023-03-23T09:51:53;14.30;99.90
4052;DHT22;2040;50.924;11.604;2023-03-23T09:54:21;14.40;99.90
4052;DHT22;2040;50.924;11.604;2023-03-23T09:56:50;14.40;99.90
4052;DHT22;2040;50.924;11.604;2023-03-23T09:59:22;14.50;99.90
4052;DHT22;2040;50.924;11.604;2023-03-23T10:01:58;14.50;99.90
4052;DHT22;2040;50.924;11.604;2023-03-23T10:04:39;14.40;99.90
4052;DHT22;2040;50.924;11.604;2023-03-23T10:07:38;14.40;99.90
4052;DHT22;2040;50.924;11.604;2023-03-23T10:10:05;14.30;99.90
4052;DHT22;2040;50.924;11.604;2023-03-23T10:12:55;14.30;99.90
4052;DHT22;2040;50.924;11.604;2023-03-23T10:15:38;14.30;99.90
4052;DHT22;2040;50.924;11.604;2023-03-23T10:20:59;14.30;99.90
4052;DHT22;2040;50.924;11.604;2023-03-23T10:26:00;14.10;99.90
4052;DHT22;2040;50.924;11.604;2023-03-23T10:28:46;14.00;99.90
4052;DHT22;2040;50.924;11.604;2023-03-23T10:31:17;14.10;99.90
4052;DHT22;2040;50.924;11.604;2023-03-23T10:33:49;14.10;99.90
4052;DHT22;2040;50.924;11.604;2023-03-23T10:36:29;14.10;99.90
4052;DHT22;2040;50.924;11.604;2023-03-23T10:39:01;14.10;99.90
4052;DHT22;2040;50.924;11.604;2023-03-23T10:41:29;14.10;99.90
4052;DHT22;2040;50.924;11.604;2023-03-23T10:43:55;14.20;99.90
4052;DHT22;2040;50.924;11.604;2023-03-23T10:48:58;14.30;99.90
4052;DHT22;2040;50.924;11.604;2023-03-23T10:51:32;14.20;99.90
4052;DHT22;2040;50.924;11.604;2023-03-23T10:54:01;14.20;99.90
4052;DHT22;2040;50.924;11.604;2023-03-23T10:56:38;14.20;99.90
4052;DHT22;2040;50.924;11.604;2023-03-23T10:59:27;14.30;99.90
4052;DHT22;2040;50.924;11.604;2023-03-23T11:01:55;14.60;99.90
4052;DHT22;2040;50.924;11.604;2023-03-23T11:04:23;14.70;99.90
4052;DHT22;2040;50.924;11.604;2023-03-23T11:06:57;14.90;99.90
4052;DHT22;2040;50.924;11.604;2023-03-23T11:09:50;14.80;99.90
4052;DHT22;2040;50.924;11.604;2023-03-23T11:12:20;14.90;99.90
4052;DHT22;2040;50.924;11.604;2023-03-23T11:14:46;15.00;99.90
4052;DHT22;2040;50.924;11.604;2023-03-23T11:17:26;15.00;99.90
4052;DHT22;2040;50.924;11.604;2023-03-23T11:19:52;15.00;99.90
4052;DHT22;2040;50.924;11.604;2023-03-23T11:22:26;15.00;99.90
4052;DHT22;2040;50.924;11.604;2023-03-23T11:24:56;15.00;99.90
4052;DHT22;2040;50.924;11.604;2023-03-23T11:27:24;15.00;99.90
4052;DHT22;2040;50.924;11.604;2023-03-23T11:30:08;15.00;99.90
4052;DHT22;2040;50.924;11.604;2023-03-23T11:32:34;14.90;99.90
4052;DHT22;2040;50.924;11.604;2023-03-23T11:35:03;14.90;99.90
4052;DHT22;2040;50.924;11.604;2023-03-23T11:37:34;15.10;99.90
4052;DHT22;2040;50.924;11.604;2023-03-23T11:40:16;15.10;99.90
4052;DHT22;2040;50.924;11.604;2023-03-23T11:43:06;15.20;99.90
4052;DHT22;2040;50.924;11.604;2023-03-23T11:45:38;15.20;99.90
4052;DHT22;2040;50.924;11.604;2023-03-23T11:56:24;14.90;99.90
4052;DHT22;2040;50.924;11.604;2023-03-23T11:58:51;14.80;99.90
4052;DHT22;2040;50.924;11.604;2023-03-23T12:07:27;14.50;99.90
4052;DHT22;2040;50.924;11.604;2023-03-23T12:15:32;14.70;99.90
4052;DHT22;2040;50.924;11.604;2023-03-23T12:18:23;14.70;99.90
4052;DHT22;2040;50.924;11.604;2023-03-23T12:21:33;14.60;99.90
4052;DHT22;2040;50.924;11.604;2023-03-23T12:26:58;14.50;99.90
4052;DHT22;2040;50.924;11.604;2023-03-23T12:37:59;14.50;99.90
4052;DHT22;2040;50.924;11.604;2023-03-23T12:40:57;14.50;99.90
4052;DHT22;2040;50.924;11.604;2023-03-23T12:43:32;14.60;99.90
4052;DHT22;2040;50.924;11.604;2023-03-23T12:48:44;15.00;99.90
4052;DHT22;2040;50.924;11.604;2023-03-23T12:51:21;15.50;99.90
4052;DHT22;2040;50.924;11.604;2023-03-23T12:56:50;16.60;99.90
4052;DHT22;2040;50.924;11.604;2023-03-23T12:59:59;17.20;99.90
4052;DHT22;2040;50.924;11.604;2023-03-23T13:02:25;17.10;99.90
4052;DHT22;2040;50.924;11.604;2023-03-23T13:05:06;16.50;99.90
4052;DHT22;2040;50.924;11.604;2023-03-23T13:07:41;16.60;99.90
4052;DHT22;2040;50.924;11.604;2023-03-23T13:10:18;16.50;99.90
4052;DHT22;2040;50.924;11.604;2023-03-23T13:12:46;16.10;99.90
4052;DHT22;2040;50.924;11.604;2023-03-23T13:18:18;16.20;99.90
4052;DHT22;2040;50.924;11.604;2023-03-23T13:20:51;16.10;99.90
4052;DHT22;2040;50.924;11.604;2023-03-23T13:23:31;16.00;99.90
4052;DHT22;2040;50.924;11.604;2023-03-23T13:26:03;15.80;99.90
4052;DHT22;2040;50.924;11.604;2023-03-23T13:28:48;15.70;99.90
4052;DHT22;2040;50.924;11.604;2023-03-23T13:31:17;15.60;99.90
4052;DHT22;2040;50.924;11.604;2023-03-23T13:33:50;15.50;99.90
4052;DHT22;2040;50.924;11.604;2023-03-23T13:36:31;15.40;99.90
4052;DHT22;2040;50.924;11.604;2023-03-23T13:39:00;15.20;99.90
4052;DHT22;2040;50.924;11.604;2023-03-23T13:41:27;15.00;99.90
4052;DHT22;2040;50.924;11.604;2023-03-23T13:43:54;15.10;99.90
4052;DHT22;2040;50.924;11.604;2023-03-23T13:46:30;15.50;99.90
4052;DHT22;2040;50.924;11.604;2023-03-23T13:49:20;15.70;99.90
4052;DHT22;2040;50.924;11.604;2023-03-23T13:52:14;15.60;99.90
4052;DHT22;2040;50.924;11.604;2023-03-23T13:54:44;15.40;99.90
4052;DHT22;2040;50.924;11.604;2023-03-23T13:57:37;15.30;99.90
4052;DHT22;2040;50.924;11.604;2023-03-23T14:05:44;15.00;99.90
4052;DHT22;2040;50.924;11.604;2023-03-23T14:08:52;14.90;99.90
4052;DHT22;2040;50.924;11.604;2023-03-23T14:11:10;14.70;99.90
4052;DHT22;2040;50.924;11.604;2023-03-23T14:14:00;14.50;99.90
4052;DHT22;2040;50.924;11.604;2023-03-23T14:16:44;14.40;99.90
4052;DHT22;2040;50.924;11.604;2023-03-23T14:19:29;14.40;99.90
4052;DHT22;2040;50.924;11.604;2023-03-23T14:21:57;14.30;99.90
4052;DHT22;2040;50.924;11.604;2023-03-23T14:26:53;14.10;99.90
4052;DHT22;2040;50.924;11.604;2023-03-23T14:29:20;14.10;99.90
4052;DHT22;2040;50.924;11.604;2023-03-23T14:31:54;14.00;99.90
4052;DHT22;2040;50.924;11.604;2023-03-23T14:34:22;13.90;99.90
4052;DHT22;2040;50.924;11.604;2023-03-23T14:36:49;13.90;99.90
4052;DHT22;2040;50.924;11.604;2023-03-23T14:39:26;13.80;99.90
4052;DHT22;2040;50.924;11.604;2023-03-23T14:41:55;13.80;99.90
4052;DHT22;2040;50.924;11.604;2023-03-23T14:44:24;13.80;99.90
4052;DHT22;2040;50.924;11.604;2023-03-23T14:46:50;13.70;99.90
4052;DHT22;2040;50.924;11.604;2023-03-23T14:49:20;13.70;99.90
4052;DHT22;2040;50.924;11.604;2023-03-23T14:51:50;13.60;99.90
4052;DHT22;2040;50.924;11.604;2023-03-23T14:54:27;13.60;99.90
4052;DHT22;2040;50.924;11.604;2023-03-23T14:56:53;13.70;99.90
4052;DHT22;2040;50.924;11.604;2023-03-23T14:59:19;13.70;99.90
4052;DHT22;2040;50.924;11.604;2023-03-23T15:01:47;13.60;99.90
4052;DHT22;2040;50.924;11.604;2023-03-23T15:04:19;13.60;99.90
4052;DHT22;2040;50.924;11.604;2023-03-23T15:07:02;13.70;99.90
4052;DHT22;2040;50.924;11.604;2023-03-23T15:09:29;13.70;99.90
4052;DHT22;2040;50.924;11.604;2023-03-23T15:11:58;13.60;99.90
4052;DHT22;2040;50.924;11.604;2023-03-23T15:14:27;13.70;99.90
4052;DHT22;2040;50.924;11.604;2023-03-23T15:16:56;13.60;99.90
4052;DHT22;2040;50.924;11.604;2023-03-23T15:19:49;13.60;99.90
4052;DHT22;2040;50.924;11.604;2023-03-23T15:22:23;13.60;99.90
4052;DHT22;2040;50.924;11.604;2023-03-23T15:25:09;13.60;99.90
4052;DHT22;2040;50.924;11.604;2023-03-23T15:27:41;13.60;99.90
4052;DHT22;2040;50.924;11.604;2023-03-23T15:32:51;13.90;99.90
4052;DHT22;2040;50.924;11.604;2023-03-23T15:35:20;14.00;99.90
4052;DHT22;2040;50.924;11.604;2023-03-23T15:38:33;14.00;99.90
4052;DHT22;2040;50.924;11.604;2023-03-23T15:40:36;14.10;99.90
4052;DHT22;2040;50.924;11.604;2023-03-23T15:51:16;13.90;99.90
4052;DHT22;2040;50.924;11.604;2023-03-23T15:53:42;13.90;99.90
4052;DHT22;2040;50.924;11.604;2023-03-23T15:56:09;13.80;99.90
4052;DHT22;2040;50.924;11.604;2023-03-23T15:58:36;13.80;99.90
4052;DHT22;2040;50.924;11.604;2023-03-23T16:01:09;13.80;99.90
4052;DHT22;2040;50.924;11.604;2023-03-23T16:03:40;14.00;99.90
4052;DHT22;2040;50.924;11.604;2023-03-23T16:06:13;14.00;99.90
4052;DHT22;2040;50.924;11.604;2023-03-23T16:08:39;13.90;99.90
4052;DHT22;2040;50.924;11.604;2023-03-23T16:11:16;13.90;99.90
4052;DHT22;2040;50.924;11.604;2023-03-23T16:13:43;13.90;99.90
4052;DHT22;2040;50.924;11.604;2023-03-23T16:16:18;13.80;99.90
4052;DHT22;2040;50.924;11.604;2023-03-23T16:18:45;13.70;99.90
4052;DHT22;2040;50.924;11.604;2023-03-23T16:21:10;13.70;99.90
4052;DHT22;2040;50.924;11.604;2023-03-23T16:23:36;13.70;99.90
4052;DHT22;2040;50.924;11.604;2023-03-23T16:26:02;13.70;99.90
4052;DHT22;2040;50.924;11.604;2023-03-23T16:28:28;13.70;99.90
4052;DHT22;2040;50.924;11.604;2023-03-23T16:30:53;13.60;99.90
4052;DHT22;2040;50.924;11.604;2023-03-23T16:33:19;13.60;99.90
4052;DHT22;2040;50.924;11.604;2023-03-23T16:35:44;13.50;99.90
4052;DHT22;2040;50.924;11.604;2023-03-23T16:38:13;13.50;99.90
4052;DHT22;2040;50.924;11.604;2023-03-23T16:40:41;13.50;99.90
4052;DHT22;2040;50.924;11.604;2023-03-23T16:43:07;13.40;99.90
4052;DHT22;2040;50.924;11.604;2023-03-23T16:45:32;13.40;99.90
4052;DHT22;2040;50.924;11.604;2023-03-23T16:47:58;13.40;99.90
4052;DHT22;2040;50.924;11.604;2023-03-23T16:50:29;13.30;99.90
4052;DHT22;2040;50.924;11.604;2023-03-23T16:52:55;13.20;99.90
4052;DHT22;2040;50.924;11.604;2023-03-23T16:55:21;13.10;99.90
4052;DHT22;2040;50.924;11.604;2023-03-23T16:57:46;13.10;99.90
4052;DHT22;2040;50.924;11.604;2023-03-23T17:00:14;13.00;99.90
4052;DHT22;2040;50.924;11.604;2023-03-23T17:02:41;13.00;99.90
4052;DHT22;2040;50.924;11.604;2023-03-23T17:05:09;12.90;99.90
4052;DHT22;2040;50.924;11.604;2023-03-23T17:07:36;12.80;99.90
4052;DHT22;2040;50.924;11.604;2023-03-23T17:10:02;12.80;99.90
4052;DHT22;2040;50.924;11.604;2023-03-23T17:12:28;12.80;99.90
4052;DHT22;2040;50.924;11.604;2023-03-23T17:14:54;12.70;99.90
4052;DHT22;2040;50.924;11.604;2023-03-23T17:17:19;12.70;99.90
4052;DHT22;2040;50.924;11.604;2023-03-23T17:19:45;12.60;99.90
4052;DHT22;2040;50.924;11.604;2023-03-23T17:22:11;12.60;99.90
4052;DHT22;2040;50.924;11.604;2023-03-23T17:24:36;12.60;99.90
4052;DHT22;2040;50.924;11.604;2023-03-23T17:27:02;12.60;99.90